sensor_id;sensor_type;location;lat;lon;timestamp;temperature;humidity
35804;DHT22;21924;51.934;7.414;2023-06-14T00:00:47;18.50;92.10
35804;DHT22;21924;51.934;7.414;2023-06-14T00:03:33;18.60;92.20
35804;DHT22;21924;51.934;7.414;2023-06-14T00:06:17;18.40;92.30
35804;DHT22;21924;51.934;7.414;2023-06-14T00:09:01;18.40;92.20
35804;DHT22;21924;51.934;7.414;2023-06-14T00:11:45;18.40;92.40
35804;DHT22;21924;51.934;7.414;2023-06-14T00:14:30;18.30;92.30
35804;DHT22;21924;51.934;7.414;2023-06-14T00:17:14;18.30;92.40
35804;DHT22;21924;51.934;7.414;2023-06-14T00:20:03;18.30;92.50
35804;DHT22;21924;51.934;7.414;2023-06-14T00:22:51;18.20;92.40
35804;DHT22;21924;51.934;7.414;2023-06-14T00:25:35;18.10;92.50
35804;DHT22;21924;51.934;7.414;2023-06-14T00:28:19;18.20;92.60
35804;DHT22;21924;51.934;7.414;2023-06-14T00:31:04;18.10;92.50
35804;DHT22;21924;51.934;7.414;2023-06-14T00:33:48;18.10;92.70
35804;DHT22;21924;51.934;7.414;2023-06-14T00:36:33;18.00;92.80
35804;DHT22;21924;51.934;7.414;2023-06-14T00:39:17;18.00;92.90
35804;DHT22;21924;51.934;7.414;2023-06-14T00:42:01;18.00;92.90
35804;DHT22;21924;51.934;7.414;2023-06-14T00:44:45;17.90;93.00
35804;DHT22;21924;51.934;7.414;2023-06-14T00:47:30;17.90;93.10
35804;DHT22;21924;51.934;7.414;2023-06-14T00:50:14;17.80;93.20
35804;DHT22;21924;51.934;7.414;2023-06-14T00:53:00;17.70;93.30
35804;DHT22;21924;51.934;7.414;2023-06-14T00:55:44;17.70;93.30
35804;DHT22;21924;51.934;7.414;2023-06-14T00:58:29;17.70;93.40
35804;DHT22;21924;51.934;7.414;2023-06-14T01:01:14;17.60;93.50
35804;DHT22;21924;51.934;7.414;2023-06-14T01:03:59;17.60;93.40
35804;DHT22;21924;51.934;7.414;2023-06-14T01:06:54;17.60;93.60
35804;DHT22;21924;51.934;7.414;2023-06-14T01:13:05;17.50;93.70
35804;DHT22;21924;51.934;7.414;2023-06-14T01:15:51;17.40;93.80
35804;DHT22;21924;51.934;7.414;2023-06-14T01:18:36;17.40;93.90
35804;DHT22;21924;51.934;7.414;2023-06-14T01:21:22;17.40;93.90
35804;DHT22;21924;51.934;7.414;2023-06-14T01:24:09;17.40;94.30
35804;DHT22;21924;51.934;7.414;2023-06-14T01:26:54;17.40;93.90
35804;DHT22;21924;51.934;7.414;2023-06-14T01:29:40;17.40;94.20
35804;DHT22;21924;51.934;7.414;2023-06-14T01:32:29;17.40;94.00
35804;DHT22;21924;51.934;7.414;2023-06-14T01:35:14;17.40;94.00
35804;DHT22;21924;51.934;7.414;2023-06-14T01:38:00;17.40;94.10
35804;DHT22;21924;51.934;7.414;2023-06-14T01:40:44;17.30;94.20
35804;DHT22;21924;51.934;7.414;2023-06-14T01:43:30;17.30;94.20
35804;DHT22;21924;51.934;7.414;2023-06-14T01:46:15;17.30;94.50
35804;DHT22;21924;51.934;7.414;2023-06-14T01:48:59;17.20;94.50
35804;DHT22;21924;51.934;7.414;2023-06-14T01:51:44;17.10;94.60
35804;DHT22;21924;51.934;7.414;2023-06-14T01:54:28;17.10;94.50
35804;DHT22;21924;51.934;7.414;2023-06-14T01:57:13;17.10;94.60
35804;DHT22;21924;51.934;7.414;2023-06-14T01:59:57;17.20;94.60
35804;DHT22;21924;51.934;7.414;2023-06-14T02:02:42;17.00;94.70
35804;DHT22;21924;51.934;7.414;2023-06-14T02:05:26;17.00;94.80
35804;DHT22;21924;51.934;7.414;2023-06-14T02:08:10;17.10;94.90
35804;DHT22;21924;51.934;7.414;2023-06-14T02:10:55;17.10;94.90
35804;DHT22;21924;51.934;7.414;2023-06-14T02:13:39;17.00;94.90
35804;DHT22;21924;51.934;7.414;2023-06-14T02:16:23;17.00;95.00
35804;DHT22;21924;51.934;7.414;2023-06-14T02:19:08;16.90;95.20
35804;DHT22;21924;51.934;7.414;2023-06-14T02:21:53;16.80;95.10
35804;DHT22;21924;51.934;7.414;2023-06-14T02:24:37;16.80;95.40
35804;DHT22;21924;51.934;7.414;2023-06-14T02:27:21;16.70;95.30
35804;DHT22;21924;51.934;7.414;2023-06-14T02:30:06;16.80;95.60
35804;DHT22;21924;51.934;7.414;2023-06-14T02:32:51;16.80;95.50
35804;DHT22;21924;51.934;7.414;2023-06-14T02:35:37;16.70;95.60
35804;DHT22;21924;51.934;7.414;2023-06-14T02:38:21;16.70;95.80
35804;DHT22;21924;51.934;7.414;2023-06-14T02:41:05;16.60;95.90
35804;DHT22;21924;51.934;7.414;2023-06-14T02:43:49;16.60;95.90
35804;DHT22;21924;51.934;7.414;2023-06-14T02:46:34;16.50;96.00
35804;DHT22;21924;51.934;7.414;2023-06-14T02:49:18;16.50;96.20
35804;DHT22;21924;51.934;7.414;2023-06-14T02:52:03;16.40;96.20
35804;DHT22;21924;51.934;7.414;2023-06-14T02:54:47;16.40;96.30
35804;DHT22;21924;51.934;7.414;2023-06-14T02:57:31;16.30;96.50
35804;DHT22;21924;51.934;7.414;2023-06-14T03:00:15;16.30;96.60
35804;DHT22;21924;51.934;7.414;2023-06-14T03:03:00;16.20;96.80
35804;DHT22;21924;51.934;7.414;2023-06-14T03:05:47;16.20;96.80
35804;DHT22;21924;51.934;7.414;2023-06-14T03:08:33;16.20;96.80
35804;DHT22;21924;51.934;7.414;2023-06-14T03:11:22;16.20;96.90
35804;DHT22;21924;51.934;7.414;2023-06-14T03:14:06;16.20;97.00
35804;DHT22;21924;51.934;7.414;2023-06-14T03:16:52;16.20;96.80
35804;DHT22;21924;51.934;7.414;2023-06-14T03:19:40;16.40;96.70
35804;DHT22;21924;51.934;7.414;2023-06-14T03:22:25;16.40;96.80
35804;DHT22;21924;51.934;7.414;2023-06-14T03:25:09;16.30;96.80
35804;DHT22;21924;51.934;7.414;2023-06-14T03:27:54;16.30;96.90
35804;DHT22;21924;51.934;7.414;2023-06-14T03:30:38;16.40;96.90
35804;DHT22;21924;51.934;7.414;2023-06-14T03:33:23;16.30;97.20
35804;DHT22;21924;51.934;7.414;2023-06-14T03:36:09;16.10;97.20
35804;DHT22;21924;51.934;7.414;2023-06-14T03:38:54;16.20;97.20
35804;DHT22;21924;51.934;7.414;2023-06-14T03:41:39;16.10;97.30
35804;DHT22;21924;51.934;7.414;2023-06-14T03:44:23;16.10;97.40
35804;DHT22;21924;51.934;7.414;2023-06-14T03:47:07;16.10;97.60
35804;DHT22;21924;51.934;7.414;2023-06-14T03:49:51;16.10;97.80
35804;DHT22;21924;51.934;7.414;2023-06-14T03:52:36;16.00;98.00
35804;DHT22;21924;51.934;7.414;2023-06-14T03:55:21;16.00;98.10
35804;DHT22;21924;51.934;7.414;2023-06-14T03:58:05;15.90;98.50
35804;DHT22;21924;51.934;7.414;2023-06-14T04:00:49;16.00;98.30
35804;DHT22;21924;51.934;7.414;2023-06-14T04:03:34;16.00;98.30
35804;DHT22;21924;51.934;7.414;2023-06-14T04:06:18;16.00;98.40
35804;DHT22;21924;51.934;7.414;2023-06-14T04:09:03;16.00;98.40
35804;DHT22;21924;51.934;7.414;2023-06-14T04:11:47;16.10;98.50
35804;DHT22;21924;51.934;7.414;2023-06-14T04:14:31;16.00;98.70
35804;DHT22;21924;51.934;7.414;2023-06-14T04:17:19;16.00;98.70
35804;DHT22;21924;51.934;7.414;2023-06-14T04:20:03;16.20;98.80
35804;DHT22;21924;51.934;7.414;2023-06-14T04:22:50;16.50;98.60
35804;DHT22;21924;51.934;7.414;2023-06-14T04:25:35;16.90;98.00
35804;DHT22;21924;51.934;7.414;2023-06-14T04:28:19;17.30;97.70
35804;DHT22;21924;51.934;7.414;2023-06-14T04:31:03;17.60;97.30
35804;DHT22;21924;51.934;7.414;2023-06-14T04:33:48;18.00;96.60
35804;DHT22;21924;51.934;7.414;2023-06-14T04:36:35;18.10;96.60
35804;DHT22;21924;51.934;7.414;2023-06-14T04:39:23;18.30;96.10
35804;DHT22;21924;51.934;7.414;2023-06-14T04:42:07;18.50;96.10
35804;DHT22;21924;51.934;7.414;2023-06-14T04:44:52;18.50;96.00
35804;DHT22;21924;51.934;7.414;2023-06-14T04:47:39;18.70;95.90
35804;DHT22;21924;51.934;7.414;2023-06-14T04:50:24;18.80;95.70
35804;DHT22;21924;51.934;7.414;2023-06-14T04:53:09;18.90;95.60
35804;DHT22;21924;51.934;7.414;2023-06-14T04:55:55;18.80;95.50
35804;DHT22;21924;51.934;7.414;2023-06-14T04:58:39;18.70;95.90
35804;DHT22;21924;51.934;7.414;2023-06-14T05:01:23;18.80;95.90
35804;DHT22;21924;51.934;7.414;2023-06-14T05:04:08;18.50;96.20
35804;DHT22;21924;51.934;7.414;2023-06-14T05:06:53;18.40;96.60
35804;DHT22;21924;51.934;7.414;2023-06-14T05:09:38;18.30;96.80
35804;DHT22;21924;51.934;7.414;2023-06-14T05:12:22;18.30;97.00
35804;DHT22;21924;51.934;7.414;2023-06-14T05:15:08;18.30;96.80
35804;DHT22;21924;51.934;7.414;2023-06-14T05:17:53;18.30;97.00
35804;DHT22;21924;51.934;7.414;2023-06-14T05:20:39;18.20;97.10
35804;DHT22;21924;51.934;7.414;2023-06-14T05:23:25;18.20;97.30
35804;DHT22;21924;51.934;7.414;2023-06-14T05:26:09;18.30;97.50
35804;DHT22;21924;51.934;7.414;2023-06-14T05:28:57;18.40;97.60
35804;DHT22;21924;51.934;7.414;2023-06-14T05:31:42;18.40;97.30
35804;DHT22;21924;51.934;7.414;2023-06-14T05:34:26;18.50;97.30
35804;DHT22;21924;51.934;7.414;2023-06-14T05:37:10;18.50;97.20
35804;DHT22;21924;51.934;7.414;2023-06-14T05:39:54;18.40;97.50
35804;DHT22;21924;51.934;7.414;2023-06-14T05:42:39;18.50;97.70
35804;DHT22;21924;51.934;7.414;2023-06-14T05:45:23;18.50;98.00
35804;DHT22;21924;51.934;7.414;2023-06-14T05:48:07;18.50;97.30
35804;DHT22;21924;51.934;7.414;2023-06-14T05:50:51;18.70;97.50
35804;DHT22;21924;51.934;7.414;2023-06-14T05:53:35;18.70;97.60
35804;DHT22;21924;51.934;7.414;2023-06-14T05:56:19;18.80;97.60
35804;DHT22;21924;51.934;7.414;2023-06-14T05:59:04;18.80;97.60
35804;DHT22;21924;51.934;7.414;2023-06-14T06:01:48;18.90;97.10
35804;DHT22;21924;51.934;7.414;2023-06-14T06:04:32;18.80;97.60
35804;DHT22;21924;51.934;7.414;2023-06-14T06:07:16;19.00;97.30
35804;DHT22;21924;51.934;7.414;2023-06-14T06:10:01;19.00;96.80
35804;DHT22;21924;51.934;7.414;2023-06-14T06:12:45;19.00;96.80
35804;DHT22;21924;51.934;7.414;2023-06-14T06:15:31;19.20;97.10
35804;DHT22;21924;51.934;7.414;2023-06-14T06:18:15;19.10;96.90
35804;DHT22;21924;51.934;7.414;2023-06-14T06:20:59;19.20;96.90
35804;DHT22;21924;51.934;7.414;2023-06-14T06:23:44;19.20;96.70
35804;DHT22;21924;51.934;7.414;2023-06-14T06:26:28;19.40;96.60
35804;DHT22;21924;51.934;7.414;2023-06-14T06:29:13;19.50;96.40
35804;DHT22;21924;51.934;7.414;2023-06-14T06:31:57;19.70;96.30
35804;DHT22;21924;51.934;7.414;2023-06-14T06:34:42;19.70;95.70
35804;DHT22;21924;51.934;7.414;2023-06-14T06:37:26;19.70;96.10
35804;DHT22;21924;51.934;7.414;2023-06-14T06:40:10;19.80;96.00
35804;DHT22;21924;51.934;7.414;2023-06-14T06:42:55;19.80;96.10
35804;DHT22;21924;51.934;7.414;2023-06-14T06:45:40;19.70;95.90
35804;DHT22;21924;51.934;7.414;2023-06-14T06:48:24;19.60;95.60
35804;DHT22;21924;51.934;7.414;2023-06-14T06:51:08;19.50;95.50
35804;DHT22;21924;51.934;7.414;2023-06-14T06:53:53;19.70;95.70
35804;DHT22;21924;51.934;7.414;2023-06-14T06:56:37;19.70;95.80
35804;DHT22;21924;51.934;7.414;2023-06-14T06:59:22;19.90;95.90
35804;DHT22;21924;51.934;7.414;2023-06-14T07:02:16;19.80;95.50
35804;DHT22;21924;51.934;7.414;2023-06-14T07:05:01;19.80;95.60
35804;DHT22;21924;51.934;7.414;2023-06-14T07:07:45;19.80;95.20
35804;DHT22;21924;51.934;7.414;2023-06-14T07:10:29;19.90;95.70
35804;DHT22;21924;51.934;7.414;2023-06-14T07:13:13;19.90;95.50
35804;DHT22;21924;51.934;7.414;2023-06-14T07:15:59;20.00;94.30
35804;DHT22;21924;51.934;7.414;2023-06-14T07:18:43;19.90;94.00
35804;DHT22;21924;51.934;7.414;2023-06-14T07:21:28;20.00;93.70
35804;DHT22;21924;51.934;7.414;2023-06-14T07:24:13;20.00;93.70
35804;DHT22;21924;51.934;7.414;2023-06-14T07:26:57;20.10;93.90
35804;DHT22;21924;51.934;7.414;2023-06-14T07:29:41;20.00;93.60
35804;DHT22;21924;51.934;7.414;2023-06-14T07:32:25;20.10;92.90
35804;DHT22;21924;51.934;7.414;2023-06-14T07:35:09;20.10;92.90
35804;DHT22;21924;51.934;7.414;2023-06-14T07:37:53;20.00;92.70
35804;DHT22;21924;51.934;7.414;2023-06-14T07:40:37;19.90;92.80
35804;DHT22;21924;51.934;7.414;2023-06-14T07:43:21;19.90;93.70
35804;DHT22;21924;51.934;7.414;2023-06-14T07:46:06;20.20;92.80
35804;DHT22;21924;51.934;7.414;2023-06-14T07:48:50;20.30;93.00
35804;DHT22;21924;51.934;7.414;2023-06-14T07:51:34;20.40;93.00
35804;DHT22;21924;51.934;7.414;2023-06-14T07:54:18;20.50;92.60
35804;DHT22;21924;51.934;7.414;2023-06-14T07:57:02;20.60;92.90
35804;DHT22;21924;51.934;7.414;2023-06-14T07:59:46;20.40;93.00
35804;DHT22;21924;51.934;7.414;2023-06-14T08:02:30;20.50;93.10
35804;DHT22;21924;51.934;7.414;2023-06-14T08:05:14;20.70;93.00
35804;DHT22;21924;51.934;7.414;2023-06-14T08:07:58;20.70;92.50
35804;DHT22;21924;51.934;7.414;2023-06-14T08:10:42;20.70;92.90
35804;DHT22;21924;51.934;7.414;2023-06-14T08:13:26;20.70;92.80
35804;DHT22;21924;51.934;7.414;2023-06-14T08:16:10;20.80;92.90
35804;DHT22;21924;51.934;7.414;2023-06-14T08:18:56;20.70;92.40
35804;DHT22;21924;51.934;7.414;2023-06-14T08:21:40;20.70;92.80
35804;DHT22;21924;51.934;7.414;2023-06-14T08:24:24;20.60;92.40
35804;DHT22;21924;51.934;7.414;2023-06-14T08:27:08;20.70;93.00
35804;DHT22;21924;51.934;7.414;2023-06-14T08:29:52;20.80;92.70
35804;DHT22;21924;51.934;7.414;2023-06-14T08:32:36;20.80;92.80
35804;DHT22;21924;51.934;7.414;2023-06-14T08:35:21;20.90;93.00
35804;DHT22;21924;51.934;7.414;2023-06-14T08:38:06;20.90;93.40
35804;DHT22;21924;51.934;7.414;2023-06-14T08:40:51;21.10;92.90
35804;DHT22;21924;51.934;7.414;2023-06-14T08:43:36;21.00;93.10
35804;DHT22;21924;51.934;7.414;2023-06-14T08:46:20;21.00;93.00
35804;DHT22;21924;51.934;7.414;2023-06-14T08:49:06;21.00;92.80
35804;DHT22;21924;51.934;7.414;2023-06-14T08:52:01;20.90;93.20
35804;DHT22;21924;51.934;7.414;2023-06-14T08:54:45;20.90;93.00
35804;DHT22;21924;51.934;7.414;2023-06-14T08:57:33;21.00;93.30
35804;DHT22;21924;51.934;7.414;2023-06-14T09:00:22;21.30;93.20
35804;DHT22;21924;51.934;7.414;2023-06-14T09:03:07;21.20;92.70
35804;DHT22;21924;51.934;7.414;2023-06-14T09:05:57;21.20;91.90
35804;DHT22;21924;51.934;7.414;2023-06-14T09:08:43;21.20;92.50
35804;DHT22;21924;51.934;7.414;2023-06-14T09:11:28;21.40;92.90
35804;DHT22;21924;51.934;7.414;2023-06-14T09:14:12;21.40;92.40
35804;DHT22;21924;51.934;7.414;2023-06-14T09:16:56;21.50;92.60
35804;DHT22;21924;51.934;7.414;2023-06-14T09:19:40;21.50;92.60
35804;DHT22;21924;51.934;7.414;2023-06-14T09:22:25;21.30;92.10
35804;DHT22;21924;51.934;7.414;2023-06-14T09:25:09;21.30;92.50
35804;DHT22;21924;51.934;7.414;2023-06-14T09:27:53;21.30;92.50
35804;DHT22;21924;51.934;7.414;2023-06-14T09:30:38;21.50;91.80
35804;DHT22;21924;51.934;7.414;2023-06-14T09:33:22;21.50;91.90
35804;DHT22;21924;51.934;7.414;2023-06-14T09:36:11;21.40;92.10
35804;DHT22;21924;51.934;7.414;2023-06-14T09:39:01;21.50;92.10
35804;DHT22;21924;51.934;7.414;2023-06-14T09:41:48;21.70;91.90
35804;DHT22;21924;51.934;7.414;2023-06-14T09:44:32;22.10;91.50
35804;DHT22;21924;51.934;7.414;2023-06-14T09:47:16;22.10;91.10
35804;DHT22;21924;51.934;7.414;2023-06-14T09:50:00;22.10;91.90
35804;DHT22;21924;51.934;7.414;2023-06-14T09:52:46;21.70;92.00
35804;DHT22;21924;51.934;7.414;2023-06-14T09:55:34;21.60;92.30
35804;DHT22;21924;51.934;7.414;2023-06-14T09:58:20;21.50;92.60
35804;DHT22;21924;51.934;7.414;2023-06-14T10:01:08;21.70;92.70
35804;DHT22;21924;51.934;7.414;2023-06-14T10:04:04;21.80;92.40
35804;DHT22;21924;51.934;7.414;2023-06-14T10:06:49;21.80;92.30
35804;DHT22;21924;51.934;7.414;2023-06-14T10:09:35;21.50;92.40
35804;DHT22;21924;51.934;7.414;2023-06-14T10:12:19;21.70;92.60
35804;DHT22;21924;51.934;7.414;2023-06-14T10:15:17;21.80;92.30
35804;DHT22;21924;51.934;7.414;2023-06-14T10:18:11;22.00;92.60
35804;DHT22;21924;51.934;7.414;2023-06-14T10:21:11;22.30;92.30
35804;DHT22;21924;51.934;7.414;2023-06-14T10:24:01;22.30;91.60
35804;DHT22;21924;51.934;7.414;2023-06-14T10:26:54;22.40;92.20
35804;DHT22;21924;51.934;7.414;2023-06-14T10:33:05;22.50;92.10
35804;DHT22;21924;51.934;7.414;2023-06-14T10:36:07;22.90;92.20
35804;DHT22;21924;51.934;7.414;2023-06-14T10:39:01;22.60;92.00
35804;DHT22;21924;51.934;7.414;2023-06-14T10:41:53;22.80;92.00
35804;DHT22;21924;51.934;7.414;2023-06-14T10:44:41;22.90;91.60
35804;DHT22;21924;51.934;7.414;2023-06-14T10:47:34;22.90;91.90
35804;DHT22;21924;51.934;7.414;2023-06-14T10:50:27;23.00;92.30
35804;DHT22;21924;51.934;7.414;2023-06-14T10:53:22;23.50;92.10
35804;DHT22;21924;51.934;7.414;2023-06-14T10:56:07;23.30;92.00
35804;DHT22;21924;51.934;7.414;2023-06-14T10:58:52;23.00;92.30
35804;DHT22;21924;51.934;7.414;2023-06-14T11:01:37;23.00;91.60
35804;DHT22;21924;51.934;7.414;2023-06-14T11:04:28;23.00;91.60
35804;DHT22;21924;51.934;7.414;2023-06-14T11:10:40;22.80;91.90
35804;DHT22;21924;51.934;7.414;2023-06-14T11:13:25;22.90;92.00
35804;DHT22;21924;51.934;7.414;2023-06-14T11:16:14;23.20;92.10
35804;DHT22;21924;51.934;7.414;2023-06-14T11:19:00;23.30;91.90
35804;DHT22;21924;51.934;7.414;2023-06-14T11:21:49;23.40;92.20
35804;DHT22;21924;51.934;7.414;2023-06-14T11:24:33;23.50;92.30
35804;DHT22;21924;51.934;7.414;2023-06-14T11:27:17;24.00;91.80
35804;DHT22;21924;51.934;7.414;2023-06-14T11:30:02;24.20;91.40
35804;DHT22;21924;51.934;7.414;2023-06-14T11:32:47;23.50;91.50
35804;DHT22;21924;51.934;7.414;2023-06-14T11:35:32;23.80;92.00
35804;DHT22;21924;51.934;7.414;2023-06-14T11:38:17;24.00;91.80
35804;DHT22;21924;51.934;7.414;2023-06-14T11:41:01;24.30;91.70
35804;DHT22;21924;51.934;7.414;2023-06-14T11:43:46;23.80;91.40
35804;DHT22;21924;51.934;7.414;2023-06-14T11:46:30;23.90;92.00
35804;DHT22;21924;51.934;7.414;2023-06-14T11:49:14;24.50;91.10
35804;DHT22;21924;51.934;7.414;2023-06-14T11:51:58;24.30;90.70
35804;DHT22;21924;51.934;7.414;2023-06-14T11:54:42;24.20;91.70
35804;DHT22;21924;51.934;7.414;2023-06-14T11:57:27;24.30;91.30
35804;DHT22;21924;51.934;7.414;2023-06-14T12:00:12;24.20;91.00
35804;DHT22;21924;51.934;7.414;2023-06-14T12:02:56;23.60;90.90
35804;DHT22;21924;51.934;7.414;2023-06-14T12:05:41;24.00;91.30
35804;DHT22;21924;51.934;7.414;2023-06-14T12:08:32;24.20;91.20
35804;DHT22;21924;51.934;7.414;2023-06-14T12:11:22;24.60;91.00
35804;DHT22;21924;51.934;7.414;2023-06-14T12:14:08;24.10;91.40
35804;DHT22;21924;51.934;7.414;2023-06-14T12:17:04;24.40;91.40
35804;DHT22;21924;51.934;7.414;2023-06-14T12:19:50;25.00;91.70
35804;DHT22;21924;51.934;7.414;2023-06-14T12:22:34;25.10;90.60
35804;DHT22;21924;51.934;7.414;2023-06-14T12:25:31;24.40;90.60
35804;DHT22;21924;51.934;7.414;2023-06-14T12:28:16;24.60;91.10
35804;DHT22;21924;51.934;7.414;2023-06-14T12:31:00;24.60;90.60
35804;DHT22;21924;51.934;7.414;2023-06-14T12:33:44;24.50;90.80
35804;DHT22;21924;51.934;7.414;2023-06-14T12:36:32;24.80;91.30
35804;DHT22;21924;51.934;7.414;2023-06-14T12:39:18;24.80;90.90
35804;DHT22;21924;51.934;7.414;2023-06-14T12:42:02;25.40;90.70
35804;DHT22;21924;51.934;7.414;2023-06-14T12:44:48;25.90;90.70
35804;DHT22;21924;51.934;7.414;2023-06-14T12:47:32;25.80;90.10
35804;DHT22;21924;51.934;7.414;2023-06-14T12:50:16;25.40;90.30
35804;DHT22;21924;51.934;7.414;2023-06-14T12:53:00;26.00;90.10
35804;DHT22;21924;51.934;7.414;2023-06-14T12:55:45;26.40;89.60
35804;DHT22;21924;51.934;7.414;2023-06-14T12:58:29;26.10;89.20
35804;DHT22;21924;51.934;7.414;2023-06-14T13:01:13;26.50;89.50
35804;DHT22;21924;51.934;7.414;2023-06-14T13:03:57;26.90;87.60
35804;DHT22;21924;51.934;7.414;2023-06-14T13:06:41;26.40;86.50
35804;DHT22;21924;51.934;7.414;2023-06-14T13:09:25;25.20;88.20
35804;DHT22;21924;51.934;7.414;2023-06-14T13:12:11;24.90;90.00
35804;DHT22;21924;51.934;7.414;2023-06-14T13:14:56;25.80;89.90
35804;DHT22;21924;51.934;7.414;2023-06-14T13:17:40;26.20;90.20
35804;DHT22;21924;51.934;7.414;2023-06-14T13:20:25;26.40;89.00
35804;DHT22;21924;51.934;7.414;2023-06-14T13:23:10;26.90;88.20
35804;DHT22;21924;51.934;7.414;2023-06-14T13:25:54;26.80;87.40
35804;DHT22;21924;51.934;7.414;2023-06-14T13:28:38;26.40;88.40
35804;DHT22;21924;51.934;7.414;2023-06-14T13:31:22;26.40;87.20
35804;DHT22;21924;51.934;7.414;2023-06-14T13:34:06;26.20;87.90
35804;DHT22;21924;51.934;7.414;2023-06-14T13:36:51;27.30;87.00
35804;DHT22;21924;51.934;7.414;2023-06-14T13:39:35;27.60;86.00
35804;DHT22;21924;51.934;7.414;2023-06-14T13:42:21;27.90;85.70
35804;DHT22;21924;51.934;7.414;2023-06-14T13:45:05;27.10;85.70
35804;DHT22;21924;51.934;7.414;2023-06-14T13:47:50;27.10;86.20
35804;DHT22;21924;51.934;7.414;2023-06-14T13:50:36;27.50;86.00
35804;DHT22;21924;51.934;7.414;2023-06-14T13:53:20;27.70;84.30
35804;DHT22;21924;51.934;7.414;2023-06-14T13:56:04;27.40;87.30
35804;DHT22;21924;51.934;7.414;2023-06-14T13:58:48;28.10;85.90
35804;DHT22;21924;51.934;7.414;2023-06-14T14:01:32;28.70;85.50
35804;DHT22;21924;51.934;7.414;2023-06-14T14:04:16;30.10;85.50
35804;DHT22;21924;51.934;7.414;2023-06-14T14:07:01;30.00;83.80
35804;DHT22;21924;51.934;7.414;2023-06-14T14:09:45;28.40;83.90
35804;DHT22;21924;51.934;7.414;2023-06-14T14:12:30;27.20;85.30
35804;DHT22;21924;51.934;7.414;2023-06-14T14:15:14;26.10;86.80
35804;DHT22;21924;51.934;7.414;2023-06-14T14:17:58;27.10;86.10
35804;DHT22;21924;51.934;7.414;2023-06-14T14:20:42;27.50;86.10
35804;DHT22;21924;51.934;7.414;2023-06-14T14:23:27;27.40;85.90
35804;DHT22;21924;51.934;7.414;2023-06-14T14:26:11;27.60;85.90
35804;DHT22;21924;51.934;7.414;2023-06-14T14:28:56;28.20;85.90
35804;DHT22;21924;51.934;7.414;2023-06-14T14:31:40;29.20;84.00
35804;DHT22;21924;51.934;7.414;2023-06-14T14:34:24;28.50;84.70
35804;DHT22;21924;51.934;7.414;2023-06-14T14:37:08;29.20;84.40
35804;DHT22;21924;51.934;7.414;2023-06-14T14:39:53;29.20;84.40
35804;DHT22;21924;51.934;7.414;2023-06-14T14:42:38;29.80;84.00
35804;DHT22;21924;51.934;7.414;2023-06-14T14:45:22;30.10;83.10
35804;DHT22;21924;51.934;7.414;2023-06-14T14:48:06;29.50;83.00
35804;DHT22;21924;51.934;7.414;2023-06-14T14:50:50;29.20;84.40
35804;DHT22;21924;51.934;7.414;2023-06-14T14:53:34;29.70;83.20
35804;DHT22;21924;51.934;7.414;2023-06-14T14:56:18;29.20;84.00
35804;DHT22;21924;51.934;7.414;2023-06-14T14:59:02;29.00;83.80
35804;DHT22;21924;51.934;7.414;2023-06-14T15:01:46;28.80;84.00
35804;DHT22;21924;51.934;7.414;2023-06-14T15:04:30;28.60;83.70
35804;DHT22;21924;51.934;7.414;2023-06-14T15:07:15;28.40;83.30
35804;DHT22;21924;51.934;7.414;2023-06-14T15:09:59;27.70;84.90
35804;DHT22;21924;51.934;7.414;2023-06-14T15:12:44;26.90;86.30
35804;DHT22;21924;51.934;7.414;2023-06-14T15:15:28;27.10;86.30
35804;DHT22;21924;51.934;7.414;2023-06-14T15:18:12;27.40;86.20
35804;DHT22;21924;51.934;7.414;2023-06-14T15:20:56;28.00;86.40
35804;DHT22;21924;51.934;7.414;2023-06-14T15:23:40;26.60;86.70
35804;DHT22;21924;51.934;7.414;2023-06-14T15:26:24;26.30;88.10
35804;DHT22;21924;51.934;7.414;2023-06-14T15:29:08;25.50;88.10
35804;DHT22;21924;51.934;7.414;2023-06-14T15:31:52;24.90;88.90
35804;DHT22;21924;51.934;7.414;2023-06-14T15:34:38;24.60;89.90
35804;DHT22;21924;51.934;7.414;2023-06-14T15:37:23;25.00;89.60
35804;DHT22;21924;51.934;7.414;2023-06-14T15:40:07;24.90;89.10
35804;DHT22;21924;51.934;7.414;2023-06-14T15:42:52;24.80;89.40
35804;DHT22;21924;51.934;7.414;2023-06-14T15:45:36;24.80;89.70
35804;DHT22;21924;51.934;7.414;2023-06-14T15:48:21;24.90;90.20
35804;DHT22;21924;51.934;7.414;2023-06-14T15:51:05;24.80;90.00
35804;DHT22;21924;51.934;7.414;2023-06-14T15:53:49;24.80;90.20
35804;DHT22;21924;51.934;7.414;2023-06-14T15:56:33;24.80;90.00
35804;DHT22;21924;51.934;7.414;2023-06-14T15:59:18;24.80;90.00
35804;DHT22;21924;51.934;7.414;2023-06-14T16:02:02;24.70;90.40
35804;DHT22;21924;51.934;7.414;2023-06-14T16:04:46;24.70;89.50
35804;DHT22;21924;51.934;7.414;2023-06-14T16:07:31;24.70;90.10
35804;DHT22;21924;51.934;7.414;2023-06-14T16:10:15;24.40;90.30
35804;DHT22;21924;51.934;7.414;2023-06-14T16:12:59;24.40;90.30
35804;DHT22;21924;51.934;7.414;2023-06-14T16:15:43;24.30;90.30
35804;DHT22;21924;51.934;7.414;2023-06-14T16:18:28;24.50;90.20
35804;DHT22;21924;51.934;7.414;2023-06-14T16:21:12;24.50;89.60
35804;DHT22;21924;51.934;7.414;2023-06-14T16:23:56;24.70;90.30
35804;DHT22;21924;51.934;7.414;2023-06-14T16:26:40;25.00;90.30
35804;DHT22;21924;51.934;7.414;2023-06-14T16:29:25;25.40;90.00
35804;DHT22;21924;51.934;7.414;2023-06-14T16:32:09;25.30;90.50
35804;DHT22;21924;51.934;7.414;2023-06-14T16:34:54;25.00;90.40
35804;DHT22;21924;51.934;7.414;2023-06-14T16:37:38;24.70;90.40
35804;DHT22;21924;51.934;7.414;2023-06-14T16:40:23;24.50;90.60
35804;DHT22;21924;51.934;7.414;2023-06-14T16:43:07;24.20;90.80
35804;DHT22;21924;51.934;7.414;2023-06-14T16:45:51;24.00;91.20
35804;DHT22;21924;51.934;7.414;2023-06-14T16:48:35;24.00;91.20
35804;DHT22;21924;51.934;7.414;2023-06-14T16:51:20;24.00;91.00
35804;DHT22;21924;51.934;7.414;2023-06-14T16:54:04;24.00;91.00
35804;DHT22;21924;51.934;7.414;2023-06-14T16:56:48;23.90;90.60
35804;DHT22;21924;51.934;7.414;2023-06-14T16:59:33;23.90;90.90
35804;DHT22;21924;51.934;7.414;2023-06-14T17:02:17;24.10;91.20
35804;DHT22;21924;51.934;7.414;2023-06-14T17:05:01;24.40;91.00
35804;DHT22;21924;51.934;7.414;2023-06-14T17:07:45;25.00;91.00
35804;DHT22;21924;51.934;7.414;2023-06-14T17:10:29;26.00;89.80
35804;DHT22;21924;51.934;7.414;2023-06-14T17:13:14;26.30;89.00
35804;DHT22;21924;51.934;7.414;2023-06-14T17:15:59;26.60;87.50
35804;DHT22;21924;51.934;7.414;2023-06-14T17:18:43;27.10;86.80
35804;DHT22;21924;51.934;7.414;2023-06-14T17:21:27;27.50;86.00
35804;DHT22;21924;51.934;7.414;2023-06-14T17:24:11;28.00;85.90
35804;DHT22;21924;51.934;7.414;2023-06-14T17:26:55;28.20;85.60
35804;DHT22;21924;51.934;7.414;2023-06-14T17:29:41;28.40;84.90
35804;DHT22;21924;51.934;7.414;2023-06-14T17:32:26;28.00;85.40